sensor_id;sensor_type;location;lat;lon;timestamp;temperature;humidity
40670;DHT22;26355;45.528;9.234;2023-05-10T00:00:27;16.90;99.90
40670;DHT22;26355;45.528;9.234;2023-05-10T00:02:53;17.10;99.90
40670;DHT22;26355;45.528;9.234;2023-05-10T00:05:18;17.10;99.90
40670;DHT22;26355;45.528;9.234;2023-05-10T00:07:44;16.90;99.90
40670;DHT22;26355;45.528;9.234;2023-05-10T00:10:11;17.00;99.90
40670;DHT22;26355;45.528;9.234;2023-05-10T00:12:36;17.00;99.90
40670;DHT22;26355;45.528;9.234;2023-05-10T00:15:03;17.00;99.90
40670;DHT22;26355;45.528;9.234;2023-05-10T00:17:28;17.00;99.90
40670;DHT22;26355;45.528;9.234;2023-05-10T00:19:54;16.90;99.90
40670;DHT22;26355;45.528;9.234;2023-05-10T00:22:20;16.80;99.90
40670;DHT22;26355;45.528;9.234;2023-05-10T00:24:46;17.00;99.90
40670;DHT22;26355;45.528;9.234;2023-05-10T00:27:11;16.70;99.90
40670;DHT22;26355;45.528;9.234;2023-05-10T00:29:37;16.80;99.90
40670;DHT22;26355;45.528;9.234;2023-05-10T00:32:03;16.80;99.90
40670;DHT22;26355;45.528;9.234;2023-05-10T00:34:28;16.80;99.90
40670;DHT22;26355;45.528;9.234;2023-05-10T00:36:54;16.70;99.90
40670;DHT22;26355;45.528;9.234;2023-05-10T00:39:20;16.70;99.90
40670;DHT22;26355;45.528;9.234;2023-05-10T00:41:45;16.80;99.90
40670;DHT22;26355;45.528;9.234;2023-05-10T00:44:11;16.70;99.90
40670;DHT22;26355;45.528;9.234;2023-05-10T00:46:36;16.60;99.90
40670;DHT22;26355;45.528;9.234;2023-05-10T00:49:02;16.70;99.90
40670;DHT22;26355;45.528;9.234;2023-05-10T00:51:28;16.60;99.90
40670;DHT22;26355;45.528;9.234;2023-05-10T00:53:54;16.60;99.90
40670;DHT22;26355;45.528;9.234;2023-05-10T00:56:21;16.70;99.90
40670;DHT22;26355;45.528;9.234;2023-05-10T00:58:48;16.60;99.90
40670;DHT22;26355;45.528;9.234;2023-05-10T01:01:14;16.50;99.90
40670;DHT22;26355;45.528;9.234;2023-05-10T01:03:40;17.00;99.90
40670;DHT22;26355;45.528;9.234;2023-05-10T01:06:06;16.50;99.90
40670;DHT22;26355;45.528;9.234;2023-05-10T01:08:32;16.60;99.90
40670;DHT22;26355;45.528;9.234;2023-05-10T01:10:57;16.50;99.90
40670;DHT22;26355;45.528;9.234;2023-05-10T01:13:43;16.50;99.90
40670;DHT22;26355;45.528;9.234;2023-05-10T01:16:11;16.50;99.90
40670;DHT22;26355;45.528;9.234;2023-05-10T01:18:39;16.50;99.90
40670;DHT22;26355;45.528;9.234;2023-05-10T01:21:37;16.50;99.90
40670;DHT22;26355;45.528;9.234;2023-05-10T01:43:39;16.50;99.90
40670;DHT22;26355;45.528;9.234;2023-05-10T01:46:09;16.50;99.90
40670;DHT22;26355;45.528;9.234;2023-05-10T01:48:45;16.40;99.90
40670;DHT22;26355;45.528;9.234;2023-05-10T01:51:15;16.50;99.90
40670;DHT22;26355;45.528;9.234;2023-05-10T01:53:42;16.60;99.90
40670;DHT22;26355;45.528;9.234;2023-05-10T01:56:09;16.50;99.90
40670;DHT22;26355;45.528;9.234;2023-05-10T01:58:38;16.40;99.90
40670;DHT22;26355;45.528;9.234;2023-05-10T02:01:05;16.50;99.90
40670;DHT22;26355;45.528;9.234;2023-05-10T02:03:34;16.40;99.90
40670;DHT22;26355;45.528;9.234;2023-05-10T02:06:01;16.50;99.90
40670;DHT22;26355;45.528;9.234;2023-05-10T02:08:29;16.30;99.90
40670;DHT22;26355;45.528;9.234;2023-05-10T02:10:56;16.30;99.90
40670;DHT22;26355;45.528;9.234;2023-05-10T02:13:24;16.30;99.90
40670;DHT22;26355;45.528;9.234;2023-05-10T02:15:51;16.30;99.90
40670;DHT22;26355;45.528;9.234;2023-05-10T02:18:18;16.20;99.90
40670;DHT22;26355;45.528;9.234;2023-05-10T02:20:46;16.10;99.90
40670;DHT22;26355;45.528;9.234;2023-05-10T02:23:12;16.10;99.90
40670;DHT22;26355;45.528;9.234;2023-05-10T02:25:39;16.10;99.90
40670;DHT22;26355;45.528;9.234;2023-05-10T02:28:06;16.10;99.90
40670;DHT22;26355;45.528;9.234;2023-05-10T02:30:33;16.10;99.90
40670;DHT22;26355;45.528;9.234;2023-05-10T02:33:00;16.10;99.90
40670;DHT22;26355;45.528;9.234;2023-05-10T02:35:27;16.00;99.90
40670;DHT22;26355;45.528;9.234;2023-05-10T02:37:53;15.90;99.90
40670;DHT22;26355;45.528;9.234;2023-05-10T02:40:19;15.80;99.90
40670;DHT22;26355;45.528;9.234;2023-05-10T02:42:48;16.00;99.90
40670;DHT22;26355;45.528;9.234;2023-05-10T02:45:19;15.90;99.90
40670;DHT22;26355;45.528;9.234;2023-05-10T02:47:45;16.00;99.90
40670;DHT22;26355;45.528;9.234;2023-05-10T02:50:11;16.20;99.90
40670;DHT22;26355;45.528;9.234;2023-05-10T02:52:40;15.90;99.90
40670;DHT22;26355;45.528;9.234;2023-05-10T02:55:09;15.90;99.90
40670;DHT22;26355;45.528;9.234;2023-05-10T02:57:40;15.90;99.90
40670;DHT22;26355;45.528;9.234;2023-05-10T03:00:07;15.90;99.90
40670;DHT22;26355;45.528;9.234;2023-05-10T03:02:32;15.90;99.90
40670;DHT22;26355;45.528;9.234;2023-05-10T03:04:58;16.00;99.90
40670;DHT22;26355;45.528;9.234;2023-05-10T03:07:23;16.10;99.90
40670;DHT22;26355;45.528;9.234;2023-05-10T03:09:49;16.10;99.90
40670;DHT22;26355;45.528;9.234;2023-05-10T03:15:17;16.10;99.90
40670;DHT22;26355;45.528;9.234;2023-05-10T03:17:55;16.30;99.90
40670;DHT22;26355;45.528;9.234;2023-05-10T03:21:10;16.40;99.90
40670;DHT22;26355;45.528;9.234;2023-05-10T03:23:35;16.30;99.90
40670;DHT22;26355;45.528;9.234;2023-05-10T03:26:02;16.40;99.90
40670;DHT22;26355;45.528;9.234;2023-05-10T03:28:30;16.40;99.90
40670;DHT22;26355;45.528;9.234;2023-05-10T03:30:57;16.30;99.90
40670;DHT22;26355;45.528;9.234;2023-05-10T03:33:23;16.30;99.90
40670;DHT22;26355;45.528;9.234;2023-05-10T03:35:48;16.30;99.90
40670;DHT22;26355;45.528;9.234;2023-05-10T03:38:14;16.40;99.90
40670;DHT22;26355;45.528;9.234;2023-05-10T03:40:39;16.30;99.90
40670;DHT22;26355;45.528;9.234;2023-05-10T03:43:05;16.40;99.90
40670;DHT22;26355;45.528;9.234;2023-05-10T03:45:31;16.40;99.90
40670;DHT22;26355;45.528;9.234;2023-05-10T03:47:57;16.30;99.90
40670;DHT22;26355;45.528;9.234;2023-05-10T03:50:23;16.30;99.90
40670;DHT22;26355;45.528;9.234;2023-05-10T03:52:49;16.30;99.90
40670;DHT22;26355;45.528;9.234;2023-05-10T03:55:15;16.30;99.90
40670;DHT22;26355;45.528;9.234;2023-05-10T03:57:40;16.30;99.90
40670;DHT22;26355;45.528;9.234;2023-05-10T04:00:06;16.40;99.90
40670;DHT22;26355;45.528;9.234;2023-05-10T04:02:32;16.20;99.90
40670;DHT22;26355;45.528;9.234;2023-05-10T04:04:57;16.30;99.90
40670;DHT22;26355;45.528;9.234;2023-05-10T04:07:23;16.30;99.90
40670;DHT22;26355;45.528;9.234;2023-05-10T04:09:49;16.40;99.90
40670;DHT22;26355;45.528;9.234;2023-05-10T04:12:14;16.20;99.90
40670;DHT22;26355;45.528;9.234;2023-05-10T04:14:40;16.30;99.90
40670;DHT22;26355;45.528;9.234;2023-05-10T04:17:06;16.30;99.90
40670;DHT22;26355;45.528;9.234;2023-05-10T04:19:31;16.40;99.90
40670;DHT22;26355;45.528;9.234;2023-05-10T04:21:58;16.30;99.90
40670;DHT22;26355;45.528;9.234;2023-05-10T04:24:24;16.30;99.90
40670;DHT22;26355;45.528;9.234;2023-05-10T04:26:50;16.40;99.90
40670;DHT22;26355;45.528;9.234;2023-05-10T04:29:16;16.40;99.90
40670;DHT22;26355;45.528;9.234;2023-05-10T04:31:41;16.40;99.90
40670;DHT22;26355;45.528;9.234;2023-05-10T04:34:07;16.20;99.90
40670;DHT22;26355;45.528;9.234;2023-05-10T04:36:33;16.20;99.90
40670;DHT22;26355;45.528;9.234;2023-05-10T04:39:00;16.10;99.90
40670;DHT22;26355;45.528;9.234;2023-05-10T04:41:26;16.10;99.90
40670;DHT22;26355;45.528;9.234;2023-05-10T04:43:51;16.10;99.90
40670;DHT22;26355;45.528;9.234;2023-05-10T04:46:17;16.10;99.90
40670;DHT22;26355;45.528;9.234;2023-05-10T04:48:42;16.20;99.90
40670;DHT22;26355;45.528;9.234;2023-05-10T04:51:08;16.20;99.90
40670;DHT22;26355;45.528;9.234;2023-05-10T04:53:34;16.00;99.90
40670;DHT22;26355;45.528;9.234;2023-05-10T04:55:59;15.90;99.90
40670;DHT22;26355;45.528;9.234;2023-05-10T04:58:25;16.00;99.90
40670;DHT22;26355;45.528;9.234;2023-05-10T05:00:51;16.10;99.90
40670;DHT22;26355;45.528;9.234;2023-05-10T05:03:16;15.90;99.90
40670;DHT22;26355;45.528;9.234;2023-05-10T05:05:43;15.80;99.90
40670;DHT22;26355;45.528;9.234;2023-05-10T05:08:09;15.70;99.90
40670;DHT22;26355;45.528;9.234;2023-05-10T05:10:34;15.70;99.90
40670;DHT22;26355;45.528;9.234;2023-05-10T05:13:00;15.80;99.90
40670;DHT22;26355;45.528;9.234;2023-05-10T05:15:26;15.70;99.90
40670;DHT22;26355;45.528;9.234;2023-05-10T05:17:51;15.70;99.90
40670;DHT22;26355;45.528;9.234;2023-05-10T05:20:17;15.70;99.90
40670;DHT22;26355;45.528;9.234;2023-05-10T05:22:44;15.80;99.90
40670;DHT22;26355;45.528;9.234;2023-05-10T05:25:10;15.80;99.90
40670;DHT22;26355;45.528;9.234;2023-05-10T05:27:36;15.80;99.90
40670;DHT22;26355;45.528;9.234;2023-05-10T05:30:02;15.80;99.90
40670;DHT22;26355;45.528;9.234;2023-05-10T05:32:28;15.90;99.90
40670;DHT22;26355;45.528;9.234;2023-05-10T05:34:54;15.90;99.90
40670;DHT22;26355;45.528;9.234;2023-05-10T05:37:20;15.70;99.90
40670;DHT22;26355;45.528;9.234;2023-05-10T05:39:49;15.80;99.90
40670;DHT22;26355;45.528;9.234;2023-05-10T05:42:15;15.80;99.90
40670;DHT22;26355;45.528;9.234;2023-05-10T05:44:43;15.80;99.90
40670;DHT22;26355;45.528;9.234;2023-05-10T05:47:08;15.80;99.90
40670;DHT22;26355;45.528;9.234;2023-05-10T05:49:34;15.90;99.90
40670;DHT22;26355;45.528;9.234;2023-05-10T05:52:01;16.10;99.90
40670;DHT22;26355;45.528;9.234;2023-05-10T05:54:27;16.50;99.90
40670;DHT22;26355;45.528;9.234;2023-05-10T05:56:59;16.00;99.90
40670;DHT22;26355;45.528;9.234;2023-05-10T05:59:25;16.00;99.90
40670;DHT22;26355;45.528;9.234;2023-05-10T06:01:51;15.90;99.90
40670;DHT22;26355;45.528;9.234;2023-05-10T06:04:17;15.90;99.90
40670;DHT22;26355;45.528;9.234;2023-05-10T06:06:43;15.90;99.90
40670;DHT22;26355;45.528;9.234;2023-05-10T06:09:09;15.90;99.90
40670;DHT22;26355;45.528;9.234;2023-05-10T06:11:35;15.80;99.90
40670;DHT22;26355;45.528;9.234;2023-05-10T06:14:01;15.80;99.90
40670;DHT22;26355;45.528;9.234;2023-05-10T06:16:27;15.80;99.90
40670;DHT22;26355;45.528;9.234;2023-05-10T06:18:53;15.90;99.90
40670;DHT22;26355;45.528;9.234;2023-05-10T06:21:19;15.80;99.90
40670;DHT22;26355;45.528;9.234;2023-05-10T06:23:44;15.80;99.90
40670;DHT22;26355;45.528;9.234;2023-05-10T06:26:10;16.00;99.90
40670;DHT22;26355;45.528;9.234;2023-05-10T06:28:36;15.70;99.90
40670;DHT22;26355;45.528;9.234;2023-05-10T06:31:04;15.80;99.90
40670;DHT22;26355;45.528;9.234;2023-05-10T06:33:29;15.80;99.90
40670;DHT22;26355;45.528;9.234;2023-05-10T06:35:55;15.90;99.90
40670;DHT22;26355;45.528;9.234;2023-05-10T06:38:21;15.70;99.90
40670;DHT22;26355;45.528;9.234;2023-05-10T06:40:47;15.60;99.90
40670;DHT22;26355;45.528;9.234;2023-05-10T06:43:12;15.70;99.90
40670;DHT22;26355;45.528;9.234;2023-05-10T06:45:38;15.80;99.90
40670;DHT22;26355;45.528;9.234;2023-05-10T06:48:03;15.60;99.90
40670;DHT22;26355;45.528;9.234;2023-05-10T06:50:29;15.70;99.90
40670;DHT22;26355;45.528;9.234;2023-05-10T06:52:54;15.80;99.90
40670;DHT22;26355;45.528;9.234;2023-05-10T06:55:21;15.80;99.90
40670;DHT22;26355;45.528;9.234;2023-05-10T06:57:46;15.80;99.90
40670;DHT22;26355;45.528;9.234;2023-05-10T07:00:13;15.90;99.90
40670;DHT22;26355;45.528;9.234;2023-05-10T07:02:39;15.90;99.90
40670;DHT22;26355;45.528;9.234;2023-05-10T07:05:05;15.80;99.90
40670;DHT22;26355;45.528;9.234;2023-05-10T07:07:30;15.80;99.90
40670;DHT22;26355;45.528;9.234;2023-05-10T07:09:56;15.80;99.90
40670;DHT22;26355;45.528;9.234;2023-05-10T07:12:23;15.70;99.90
40670;DHT22;26355;45.528;9.234;2023-05-10T07:14:49;15.70;99.90
40670;DHT22;26355;45.528;9.234;2023-05-10T07:17:14;15.70;99.90
40670;DHT22;26355;45.528;9.234;2023-05-10T07:19:40;15.80;99.90
40670;DHT22;26355;45.528;9.234;2023-05-10T07:22:06;15.90;99.90
40670;DHT22;26355;45.528;9.234;2023-05-10T07:24:32;15.90;99.90
40670;DHT22;26355;45.528;9.234;2023-05-10T07:26:58;15.90;99.90
40670;DHT22;26355;45.528;9.234;2023-05-10T07:29:24;15.90;99.90
40670;DHT22;26355;45.528;9.234;2023-05-10T07:31:49;15.80;99.90
40670;DHT22;26355;45.528;9.234;2023-05-10T07:34:15;16.00;99.90
40670;DHT22;26355;45.528;9.234;2023-05-10T07:36:41;16.00;99.90
40670;DHT22;26355;45.528;9.234;2023-05-10T07:39:06;16.20;99.90
40670;DHT22;26355;45.528;9.234;2023-05-10T07:41:32;16.30;99.90
40670;DHT22;26355;45.528;9.234;2023-05-10T07:43:58;16.90;99.90
40670;DHT22;26355;45.528;9.234;2023-05-10T07:46:24;16.40;99.90
40670;DHT22;26355;45.528;9.234;2023-05-10T07:48:49;16.50;99.90
40670;DHT22;26355;45.528;9.234;2023-05-10T07:51:15;16.50;99.90
40670;DHT22;26355;45.528;9.234;2023-05-10T07:53:40;16.60;99.90
40670;DHT22;26355;45.528;9.234;2023-05-10T07:56:29;16.60;99.90
40670;DHT22;26355;45.528;9.234;2023-05-10T07:59:00;16.70;99.90
40670;DHT22;26355;45.528;9.234;2023-05-10T08:01:26;16.70;99.90
40670;DHT22;26355;45.528;9.234;2023-05-10T08:03:52;16.80;99.90
40670;DHT22;26355;45.528;9.234;2023-05-10T08:06:19;16.80;99.90
40670;DHT22;26355;45.528;9.234;2023-05-10T08:08:46;16.80;99.90
40670;DHT22;26355;45.528;9.234;2023-05-10T08:11:16;16.80;99.90
40670;DHT22;26355;45.528;9.234;2023-05-10T08:13:43;16.90;99.90
40670;DHT22;26355;45.528;9.234;2023-05-10T08:16:08;16.90;99.90
40670;DHT22;26355;45.528;9.234;2023-05-10T08:18:34;16.90;99.90
40670;DHT22;26355;45.528;9.234;2023-05-10T08:21:00;16.80;99.90
40670;DHT22;26355;45.528;9.234;2023-05-10T08:23:25;16.70;99.90
40670;DHT22;26355;45.528;9.234;2023-05-10T08:25:51;16.80;99.90
40670;DHT22;26355;45.528;9.234;2023-05-10T08:28:16;16.80;99.90
40670;DHT22;26355;45.528;9.234;2023-05-10T08:30:42;16.90;99.90
40670;DHT22;26355;45.528;9.234;2023-05-10T08:33:07;17.00;99.90
40670;DHT22;26355;45.528;9.234;2023-05-10T08:35:33;16.70;99.90
40670;DHT22;26355;45.528;9.234;2023-05-10T08:38:00;16.60;99.90
40670;DHT22;26355;45.528;9.234;2023-05-10T08:40:26;16.70;99.90
40670;DHT22;26355;45.528;9.234;2023-05-10T08:43:08;16.60;99.90
40670;DHT22;26355;45.528;9.234;2023-05-10T08:45:42;16.50;99.90
40670;DHT22;26355;45.528;9.234;2023-05-10T08:48:09;16.50;99.90
40670;DHT22;26355;45.528;9.234;2023-05-10T08:50:35;16.50;99.90
40670;DHT22;26355;45.528;9.234;2023-05-10T08:53:04;16.50;99.90
40670;DHT22;26355;45.528;9.234;2023-05-10T08:55:32;16.60;99.90
40670;DHT22;26355;45.528;9.234;2023-05-10T08:57:59;16.70;99.90
40670;DHT22;26355;45.528;9.234;2023-05-10T09:00:25;16.70;99.90
40670;DHT22;26355;45.528;9.234;2023-05-10T09:02:51;16.50;99.90
40670;DHT22;26355;45.528;9.234;2023-05-10T09:05:17;16.80;99.90
40670;DHT22;26355;45.528;9.234;2023-05-10T09:07:43;16.80;99.90
40670;DHT22;26355;45.528;9.234;2023-05-10T09:10:09;17.00;99.90
40670;DHT22;26355;45.528;9.234;2023-05-10T09:12:36;16.90;99.90
40670;DHT22;26355;45.528;9.234;2023-05-10T09:15:02;17.00;99.90
40670;DHT22;26355;45.528;9.234;2023-05-10T09:17:29;16.90;99.90
40670;DHT22;26355;45.528;9.234;2023-05-10T09:19:59;16.90;99.90
40670;DHT22;26355;45.528;9.234;2023-05-10T09:22:25;16.90;99.90
40670;DHT22;26355;45.528;9.234;2023-05-10T09:25:09;16.90;99.90
40670;DHT22;26355;45.528;9.234;2023-05-10T09:27:37;17.00;99.90
40670;DHT22;26355;45.528;9.234;2023-05-10T09:30:04;17.00;99.90
40670;DHT22;26355;45.528;9.234;2023-05-10T09:32:57;17.10;99.90
40670;DHT22;26355;45.528;9.234;2023-05-10T09:35:24;17.00;99.90
40670;DHT22;26355;45.528;9.234;2023-05-10T09:37:52;17.20;99.90
40670;DHT22;26355;45.528;9.234;2023-05-10T09:40:24;17.20;99.90
40670;DHT22;26355;45.528;9.234;2023-05-10T09:43:03;17.20;99.90
40670;DHT22;26355;45.528;9.234;2023-05-10T09:45:30;17.20;99.90
40670;DHT22;26355;45.528;9.234;2023-05-10T09:47:57;17.20;99.90
40670;DHT22;26355;45.528;9.234;2023-05-10T09:50:23;17.50;99.90
40670;DHT22;26355;45.528;9.234;2023-05-10T09:52:53;17.40;99.90
40670;DHT22;26355;45.528;9.234;2023-05-10T09:55:22;17.40;99.90
40670;DHT22;26355;45.528;9.234;2023-05-10T09:57:48;17.40;99.90
40670;DHT22;26355;45.528;9.234;2023-05-10T10:00:18;17.50;99.90
40670;DHT22;26355;45.528;9.234;2023-05-10T10:02:55;17.50;99.90
40670;DHT22;26355;45.528;9.234;2023-05-10T10:05:20;17.50;99.90
40670;DHT22;26355;45.528;9.234;2023-05-10T10:07:46;17.50;99.90
40670;DHT22;26355;45.528;9.234;2023-05-10T10:10:12;17.50;99.90
40670;DHT22;26355;45.528;9.234;2023-05-10T10:12:39;17.20;99.90
40670;DHT22;26355;45.528;9.234;2023-05-10T10:15:07;17.40;99.90
40670;DHT22;26355;45.528;9.234;2023-05-10T10:17:35;17.20;99.90
40670;DHT22;26355;45.528;9.234;2023-05-10T10:20:02;17.30;99.90
40670;DHT22;26355;45.528;9.234;2023-05-10T10:22:28;17.10;99.90
40670;DHT22;26355;45.528;9.234;2023-05-10T10:24:54;17.00;99.90
40670;DHT22;26355;45.528;9.234;2023-05-10T10:27:42;16.80;99.90
40670;DHT22;26355;45.528;9.234;2023-05-10T10:33:06;16.40;99.90
40670;DHT22;26355;45.528;9.234;2023-05-10T10:35:34;16.60;99.90
40670;DHT22;26355;45.528;9.234;2023-05-10T10:38:00;16.70;99.90
40670;DHT22;26355;45.528;9.234;2023-05-10T10:40:27;16.60;99.90
40670;DHT22;26355;45.528;9.234;2023-05-10T10:42:53;16.60;99.90
40670;DHT22;26355;45.528;9.234;2023-05-10T10:45:20;16.60;99.90
40670;DHT22;26355;45.528;9.234;2023-05-10T10:47:46;16.40;99.90
40670;DHT22;26355;45.528;9.234;2023-05-10T10:50:12;16.40;99.90
40670;DHT22;26355;45.528;9.234;2023-05-10T10:52:45;16.60;99.90
40670;DHT22;26355;45.528;9.234;2023-05-10T10:55:20;16.60;99.90
40670;DHT22;26355;45.528;9.234;2023-05-10T10:57:55;16.50;99.90
40670;DHT22;26355;45.528;9.234;2023-05-10T11:00:30;16.50;99.90
40670;DHT22;26355;45.528;9.234;2023-05-10T11:03:06;16.70;99.90
40670;DHT22;26355;45.528;9.234;2023-05-10T11:08:27;16.70;99.90
40670;DHT22;26355;45.528;9.234;2023-05-10T11:11:04;16.80;99.90
40670;DHT22;26355;45.528;9.234;2023-05-10T11:13:42;16.80;99.90
40670;DHT22;26355;45.528;9.234;2023-05-10T11:16:19;16.90;99.90
40670;DHT22;26355;45.528;9.234;2023-05-10T11:19:06;16.90;99.90
40670;DHT22;26355;45.528;9.234;2023-05-10T11:21:33;17.00;99.90
40670;DHT22;26355;45.528;9.234;2023-05-10T11:24:00;16.90;99.90
40670;DHT22;26355;45.528;9.234;2023-05-10T11:26:34;16.90;99.90
40670;DHT22;26355;45.528;9.234;2023-05-10T11:29:00;17.00;99.90
40670;DHT22;26355;45.528;9.234;2023-05-10T11:31:27;16.80;99.90
40670;DHT22;26355;45.528;9.234;2023-05-10T11:33:55;16.50;99.90
40670;DHT22;26355;45.528;9.234;2023-05-10T11:36:25;16.50;99.90
40670;DHT22;26355;45.528;9.234;2023-05-10T11:38:51;16.70;99.90
40670;DHT22;26355;45.528;9.234;2023-05-10T11:41:18;16.40;99.90
40670;DHT22;26355;45.528;9.234;2023-05-10T11:43:47;16.50;99.90
40670;DHT22;26355;45.528;9.234;2023-05-10T11:46:14;16.70;99.90
40670;DHT22;26355;45.528;9.234;2023-05-10T11:48:41;16.80;99.90
40670;DHT22;26355;45.528;9.234;2023-05-10T11:51:10;16.60;99.90
40670;DHT22;26355;45.528;9.234;2023-05-10T11:53:36;16.50;99.90
40670;DHT22;26355;45.528;9.234;2023-05-10T11:56:07;16.50;99.90
40670;DHT22;26355;45.528;9.234;2023-05-10T11:58:34;16.10;99.90
40670;DHT22;26355;45.528;9.234;2023-05-10T12:01:00;16.00;99.90
40670;DHT22;26355;45.528;9.234;2023-05-10T12:03:27;16.00;99.90
40670;DHT22;26355;45.528;9.234;2023-05-10T12:05:54;16.10;99.90
40670;DHT22;26355;45.528;9.234;2023-05-10T12:08:22;16.00;99.90
40670;DHT22;26355;45.528;9.234;2023-05-10T12:10:48;16.20;99.90
40670;DHT22;26355;45.528;9.234;2023-05-10T12:13:14;16.20;99.90
40670;DHT22;26355;45.528;9.234;2023-05-10T12:15:41;16.90;99.90
40670;DHT22;26355;45.528;9.234;2023-05-10T12:18:09;16.20;99.90
40670;DHT22;26355;45.528;9.234;2023-05-10T12:20:35;16.20;99.90
40670;DHT22;26355;45.528;9.234;2023-05-10T12:23:02;16.20;99.90
40670;DHT22;26355;45.528;9.234;2023-05-10T12:25:33;16.20;99.90
40670;DHT22;26355;45.528;9.234;2023-05-10T12:28:00;16.10;99.90
40670;DHT22;26355;45.528;9.234;2023-05-10T12:30:30;16.20;99.90
40670;DHT22;26355;45.528;9.234;2023-05-10T12:33:17;16.30;99.90
40670;DHT22;26355;45.528;9.234;2023-05-10T12:35:50;16.30;99.90
40670;DHT22;26355;45.528;9.234;2023-05-10T12:41:00;16.30;99.90
40670;DHT22;26355;45.528;9.234;2023-05-10T12:43:26;16.30;99.90
40670;DHT22;26355;45.528;9.234;2023-05-10T12:45:52;16.30;99.90
40670;DHT22;26355;45.528;9.234;2023-05-10T12:48:18;16.30;99.90
40670;DHT22;26355;45.528;9.234;2023-05-10T12:50:43;16.30;99.90
40670;DHT22;26355;45.528;9.234;2023-05-10T12:53:09;16.50;99.90
40670;DHT22;26355;45.528;9.234;2023-05-10T12:55:35;16.60;99.90
40670;DHT22;26355;45.528;9.234;2023-05-10T12:58:00;16.70;99.90
40670;DHT22;26355;45.528;9.234;2023-05-10T13:00:26;16.80;99.90
40670;DHT22;26355;45.528;9.234;2023-05-10T13:02:52;17.00;99.90
40670;DHT22;26355;45.528;9.234;2023-05-10T13:05:18;17.10;99.90
40670;DHT22;26355;45.528;9.234;2023-05-10T13:07:43;17.30;99.90
40670;DHT22;26355;45.528;9.234;2023-05-10T13:10:09;17.30;99.90
40670;DHT22;26355;45.528;9.234;2023-05-10T13:12:35;17.30;99.90
40670;DHT22;26355;45.528;9.234;2023-05-10T13:15:01;17.40;99.90
40670;DHT22;26355;45.528;9.234;2023-05-10T13:17:28;17.30;99.90
40670;DHT22;26355;45.528;9.234;2023-05-10T13:19:54;17.50;99.90
40670;DHT22;26355;45.528;9.234;2023-05-10T13:22:19;17.50;99.90
40670;DHT22;26355;45.528;9.234;2023-05-10T13:24:45;17.50;99.90
40670;DHT22;26355;45.528;9.234;2023-05-10T13:27:10;17.50;99.90
40670;DHT22;26355;45.528;9.234;2023-05-10T13:29:36;17.60;99.90
40670;DHT22;26355;45.528;9.234;2023-05-10T13:32:02;17.50;99.90
40670;DHT22;26355;45.528;9.234;2023-05-10T13:34:27;17.50;99.90
40670;DHT22;26355;45.528;9.234;2023-05-10T13:36:53;17.50;99.90
40670;DHT22;26355;45.528;9.234;2023-05-10T13:39:20;17.40;99.90
40670;DHT22;26355;45.528;9.234;2023-05-10T13:41:46;17.40;99.90
40670;DHT22;26355;45.528;9.234;2023-05-10T13:44:13;17.50;99.90
40670;DHT22;26355;45.528;9.234;2023-05-10T13:46:40;17.50;99.90
40670;DHT22;26355;45.528;9.234;2023-05-10T13:49:05;17.70;99.90
40670;DHT22;26355;45.528;9.234;2023-05-10T13:51:31;17.50;99.90
40670;DHT22;26355;45.528;9.234;2023-05-10T13:53:57;17.30;99.90
40670;DHT22;26355;45.528;9.234;2023-05-10T13:56:23;17.40;99.90
40670;DHT22;26355;45.528;9.234;2023-05-10T13:58:48;17.50;99.90
40670;DHT22;26355;45.528;9.234;2023-05-10T14:01:14;17.50;99.90
40670;DHT22;26355;45.528;9.234;2023-05-10T14:03:40;17.60;99.90
40670;DHT22;26355;45.528;9.234;2023-05-10T14:06:06;17.60;99.90
40670;DHT22;26355;45.528;9.234;2023-05-10T14:08:33;17.70;99.90
40670;DHT22;26355;45.528;9.234;2023-05-10T14:10:58;17.70;99.90
40670;DHT22;26355;45.528;9.234;2023-05-10T14:13:24;17.60;99.90
40670;DHT22;26355;45.528;9.234;2023-05-10T14:15:50;17.70;99.90
40670;DHT22;26355;45.528;9.234;2023-05-10T14:18:16;17.70;99.90
40670;DHT22;26355;45.528;9.234;2023-05-10T14:20:41;17.80;99.90
40670;DHT22;26355;45.528;9.234;2023-05-10T14:23:07;17.70;99.90
40670;DHT22;26355;45.528;9.234;2023-05-10T14:25:33;17.70;99.90
40670;DHT22;26355;45.528;9.234;2023-05-10T14:27:59;17.40;99.90
40670;DHT22;26355;45.528;9.234;2023-05-10T14:30:25;17.30;99.90
40670;DHT22;26355;45.528;9.234;2023-05-10T14:32:51;17.20;99.90
40670;DHT22;26355;45.528;9.234;2023-05-10T14:35:19;17.30;99.90
40670;DHT22;26355;45.528;9.234;2023-05-10T14:37:44;17.40;99.90
40670;DHT22;26355;45.528;9.234;2023-05-10T14:40:10;17.20;99.90
40670;DHT22;26355;45.528;9.234;2023-05-10T14:42:36;17.20;99.90
40670;DHT22;26355;45.528;9.234;2023-05-10T14:45:02;17.30;99.90
40670;DHT22;26355;45.528;9.234;2023-05-10T14:47:27;17.30;99.90
40670;DHT22;26355;45.528;9.234;2023-05-10T14:49:53;17.40;99.90
40670;DHT22;26355;45.528;9.234;2023-05-10T14:52:19;17.40;99.90
40670;DHT22;26355;45.528;9.234;2023-05-10T14:54:44;17.40;99.90
40670;DHT22;26355;45.528;9.234;2023-05-10T14:57:10;17.40;99.90
40670;DHT22;26355;45.528;9.234;2023-05-10T14:59:35;17.50;99.90
40670;DHT22;26355;45.528;9.234;2023-05-10T15:02:01;17.40;99.90
40670;DHT22;26355;45.528;9.234;2023-05-10T15:04:27;17.40;99.90
40670;DHT22;26355;45.528;9.234;2023-05-10T15:06:52;17.40;99.90
40670;DHT22;26355;45.528;9.234;2023-05-10T15:09:24;17.40;99.90
40670;DHT22;26355;45.528;9.234;2023-05-10T15:11:50;17.40;99.90
40670;DHT22;26355;45.528;9.234;2023-05-10T15:14:15;17.40;99.90
40670;DHT22;26355;45.528;9.234;2023-05-10T15:16:41;17.40;99.90
40670;DHT22;26355;45.528;9.234;2023-05-10T15:19:06;17.50;99.90
40670;DHT22;26355;45.528;9.234;2023-05-10T15:21:32;17.50;99.90
40670;DHT22;26355;45.528;9.234;2023-05-10T15:24:06;17.60;99.90
40670;DHT22;26355;45.528;9.234;2023-05-10T15:26:32;17.40;99.90
40670;DHT22;26355;45.528;9.234;2023-05-10T15:28:58;17.40;99.90
40670;DHT22;26355;45.528;9.234;2023-05-10T15:31:23;17.30;99.90
40670;DHT22;26355;45.528;9.234;2023-05-10T15:33:49;17.20;99.90
40670;DHT22;26355;45.528;9.234;2023-05-10T15:36:15;17.20;99.90
40670;DHT22;26355;45.528;9.234;2023-05-10T15:38:42;17.20;99.90
40670;DHT22;26355;45.528;9.234;2023-05-10T15:41:07;17.30;99.90
40670;DHT22;26355;45.528;9.234;2023-05-10T15:43:33;17.20;99.90
40670;DHT22;26355;45.528;9.234;2023-05-10T15:45:58;17.30;99.90
40670;DHT22;26355;45.528;9.234;2023-05-10T15:48:24;17.20;99.90
40670;DHT22;26355;45.528;9.234;2023-05-10T15:50:50;17.30;99.90
40670;DHT22;26355;45.528;9.234;2023-05-10T15:53:16;17.30;99.90
40670;DHT22;26355;45.528;9.234;2023-05-10T15:55:42;17.20;99.90
40670;DHT22;26355;45.528;9.234;2023-05-10T15:58:07;17.10;99.90
40670;DHT22;26355;45.528;9.234;2023-05-10T16:00:33;17.20;99.90